GMMNGMMX

Guest
Details From GMMN - Casablanca Mohammed V Intl
To GMMX - Menara
Flight Number -
Tags Generated
Created
Modified
Stats Distance 109 nm / 202 km
Max Altitude 0 ft / 0 m
Waypoints 2
Social Downloads 0
Likes 0
Share VATSIM

Download

Looking for another format? Having issues loading an existing format? Contact us
Advertisement - Login to hide

Notes

Generated

Route

GMMN GMMX

ID Type Via Altitude Latitude Longitude Leg Dist Tot Dist Heading (true) Name
O GMMN APT - 0 ft / 0 m 33.38306˚ -7.59743˚ - 0 nm - -
O GMMX APT - 0 ft / 0 m 31.60837˚ -8.05254˚ 109 nm 109 nm 192° / 192° -

Altitude Profile

Advertisement - Login to hide

GMMN

Details ICAO GMMN (CMN)
Name Casablanca Mohammed V Intl
Region Morocco
Timezone Africa/Casablanca (UTC+0.0)
Stats Elevation 656 ft / 200 m (AMSL)
Location 33.367466° -7.589964°
Runways 2
Magnetic Variation 1.768° W

METAR

GMMN 232300Z 21003KT 9999 SCT016 15/14 Q1017 NOSIG

Decode

TAF

TAF GMMN 231700Z 2318/2424 36010KT 9999 BKN016 TEMPO 2314/2319 BECMG 2320/2322 04004KT BECMG 2410/2412 34008KT 9999 SCT016

Decode

Departure Runways

ID Width Length Bearing (true) Bearing (mag) Surface Threshold Offset Overrun Length
17L 148 ft / 45 m 12,224 ft / 3,726 m 164.03° 165.80° Asphalt 0 ft / 0 m 295 ft / 90 m
17R 148 ft / 45 m 12,196 ft / 3,717 m 164.03° 165.80° Asphalt 0 ft / 0 m 197 ft / 60 m
35L 148 ft / 45 m 12,196 ft / 3,717 m 344.04° 345.81° Asphalt 0 ft / 0 m 180 ft / 55 m
35R 148 ft / 45 m 12,224 ft / 3,726 m 344.04° 345.81° Asphalt 0 ft / 0 m 995 ft / 303 m

GMMX

Details ICAO GMMX (RAK)
Name MENARA
Region Morocco
Timezone Africa/Casablanca (UTC+0.0)
Stats Elevation 1,545 ft / 471 m (AMSL)
Location 31.606920° -8.036265°
Runways 1
Magnetic Variation 1.951° W

METAR

GMMX 232300Z 27008KT 9999 SCT016 BKN023 17/14 Q1016 NOSIG

Decode

TAF

TAF GMMX 231700Z 2318/2424 32014KT 8000 BKN023 TEMPO 2320/2402 5000 RA SCT013 OVC020 BECMG 2404/2406 24005KT

Decode

Destination Runways

ID Width Length Bearing (true) Bearing (mag) Surface Threshold Offset Overrun Length
10 148 ft / 45 m 10,169 ft / 3,100 m 95.99° 97.94° Asphalt 918 ft / 280 m 0 ft / 0 m
28 148 ft / 45 m 10,169 ft / 3,100 m 276.00° 277.95° Asphalt 0 ft / 0 m 0 ft / 0 m

Approach Navaids

Runway Type Ident Frequency Range Bearing (true) Bearing (mag) Slope Elevation
10 Localiser MAR 109.70 MHz 18 nm / 33 km 96.03° 97.98° - 1,545 ft / 471 m (AMSL)
10 Glidescope MAR 109.70 MHz 10 nm / 19 km 96.00° 97.95° 3.00° 1,558 ft / 475 m (AMSL)

Popular Alternatives